sensor_id;sensor_type;location;lat;lon;timestamp;temperature;humidity
2495;DHT22;1258;48.336;14.322;2024-01-15T00:02:14;-7.20;99.90
2495;DHT22;1258;48.336;14.322;2024-01-15T00:04:41;-7.20;99.90
2495;DHT22;1258;48.336;14.322;2024-01-15T00:07:09;-7.10;99.90
2495;DHT22;1258;48.336;14.322;2024-01-15T00:09:36;-7.10;99.90
2495;DHT22;1258;48.336;14.322;2024-01-15T00:12:04;-7.00;99.90
2495;DHT22;1258;48.336;14.322;2024-01-15T00:14:31;-7.00;99.90
2495;DHT22;1258;48.336;14.322;2024-01-15T00:16:58;-7.00;99.90
2495;DHT22;1258;48.336;14.322;2024-01-15T00:19:25;-7.00;99.90
2495;DHT22;1258;48.336;14.322;2024-01-15T00:21:52;-7.00;99.90
2495;DHT22;1258;48.336;14.322;2024-01-15T00:24:21;-7.00;99.90
2495;DHT22;1258;48.336;14.322;2024-01-15T00:26:48;-7.40;99.90
2495;DHT22;1258;48.336;14.322;2024-01-15T00:29:15;-7.20;99.90
2495;DHT22;1258;48.336;14.322;2024-01-15T00:31:42;-7.10;99.90
2495;DHT22;1258;48.336;14.322;2024-01-15T00:34:09;-7.20;99.90
2495;DHT22;1258;48.336;14.322;2024-01-15T00:36:36;-7.20;99.90
2495;DHT22;1258;48.336;14.322;2024-01-15T00:39:03;-7.20;99.90
2495;DHT22;1258;48.336;14.322;2024-01-15T00:41:32;-7.20;99.90
2495;DHT22;1258;48.336;14.322;2024-01-15T00:43:58;-7.30;99.90
2495;DHT22;1258;48.336;14.322;2024-01-15T00:46:25;-7.30;99.90
2495;DHT22;1258;48.336;14.322;2024-01-15T00:48:52;-7.30;99.90
2495;DHT22;1258;48.336;14.322;2024-01-15T00:51:19;-7.30;99.90
2495;DHT22;1258;48.336;14.322;2024-01-15T00:53:46;-7.30;99.90
2495;DHT22;1258;48.336;14.322;2024-01-15T00:56:13;-7.30;99.90
2495;DHT22;1258;48.336;14.322;2024-01-15T00:58:42;-7.30;99.90
2495;DHT22;1258;48.336;14.322;2024-01-15T01:01:08;-7.30;99.90
2495;DHT22;1258;48.336;14.322;2024-01-15T01:03:35;-7.20;99.90
2495;DHT22;1258;48.336;14.322;2024-01-15T01:06:02;-7.20;99.90
2495;DHT22;1258;48.336;14.322;2024-01-15T01:08:29;-7.20;99.90
2495;DHT22;1258;48.336;14.322;2024-01-15T01:10:56;-7.20;99.90
2495;DHT22;1258;48.336;14.322;2024-01-15T01:13:23;-7.20;99.90
2495;DHT22;1258;48.336;14.322;2024-01-15T01:15:51;-7.10;99.90
2495;DHT22;1258;48.336;14.322;2024-01-15T01:18:18;-7.10;99.90
2495;DHT22;1258;48.336;14.322;2024-01-15T01:20:45;-7.10;99.90
2495;DHT22;1258;48.336;14.322;2024-01-15T01:23:12;-7.20;99.90
2495;DHT22;1258;48.336;14.322;2024-01-15T01:25:39;-7.40;99.90
2495;DHT22;1258;48.336;14.322;2024-01-15T01:28:06;-7.30;99.90
2495;DHT22;1258;48.336;14.322;2024-01-15T01:30:33;-7.30;99.90
2495;DHT22;1258;48.336;14.322;2024-01-15T01:33:01;-7.30;99.90
2495;DHT22;1258;48.336;14.322;2024-01-15T01:35:28;-7.30;99.90
2495;DHT22;1258;48.336;14.322;2024-01-15T01:37:55;-7.30;99.90
2495;DHT22;1258;48.336;14.322;2024-01-15T01:40:22;-7.30;99.90
2495;DHT22;1258;48.336;14.322;2024-01-15T01:42:49;-7.40;99.90
2495;DHT22;1258;48.336;14.322;2024-01-15T01:45:16;-7.70;99.90
2495;DHT22;1258;48.336;14.322;2024-01-15T01:47:43;-7.60;99.90
2495;DHT22;1258;48.336;14.322;2024-01-15T01:50:12;-7.70;99.90
2495;DHT22;1258;48.336;14.322;2024-01-15T01:52:39;-7.80;99.90
2495;DHT22;1258;48.336;14.322;2024-01-15T01:55:07;-7.70;99.90
2495;DHT22;1258;48.336;14.322;2024-01-15T01:57:35;-7.70;99.90
2495;DHT22;1258;48.336;14.322;2024-01-15T02:00:04;-7.60;99.90
2495;DHT22;1258;48.336;14.322;2024-01-15T02:02:32;-7.70;99.90
2495;DHT22;1258;48.336;14.322;2024-01-15T02:05:00;-7.80;99.90
2495;DHT22;1258;48.336;14.322;2024-01-15T02:07:28;-7.80;99.90
2495;DHT22;1258;48.336;14.322;2024-01-15T02:09:55;-7.90;99.90
2495;DHT22;1258;48.336;14.322;2024-01-15T02:12:22;-7.90;99.90
2495;DHT22;1258;48.336;14.322;2024-01-15T02:14:49;-7.90;99.90
2495;DHT22;1258;48.336;14.322;2024-01-15T02:17:16;-8.00;99.90
2495;DHT22;1258;48.336;14.322;2024-01-15T02:19:43;-7.90;99.90
2495;DHT22;1258;48.336;14.322;2024-01-15T02:22:10;-7.90;99.90
2495;DHT22;1258;48.336;14.322;2024-01-15T02:24:38;-8.00;99.90
2495;DHT22;1258;48.336;14.322;2024-01-15T02:27:05;-8.00;99.90
2495;DHT22;1258;48.336;14.322;2024-01-15T02:29:32;-8.00;99.90
2495;DHT22;1258;48.336;14.322;2024-01-15T02:31:59;-8.10;99.90
2495;DHT22;1258;48.336;14.322;2024-01-15T02:34:31;-8.10;99.90
2495;DHT22;1258;48.336;14.322;2024-01-15T02:36:58;-8.20;99.90
2495;DHT22;1258;48.336;14.322;2024-01-15T02:39:25;-8.10;99.90
2495;DHT22;1258;48.336;14.322;2024-01-15T02:41:53;-8.00;99.90
2495;DHT22;1258;48.336;14.322;2024-01-15T02:44:21;-8.20;99.90
2495;DHT22;1258;48.336;14.322;2024-01-15T02:46:48;-8.20;99.90
2495;DHT22;1258;48.336;14.322;2024-01-15T02:49:15;-8.10;99.90
2495;DHT22;1258;48.336;14.322;2024-01-15T02:51:42;-8.10;99.90
2495;DHT22;1258;48.336;14.322;2024-01-15T02:54:09;-8.00;99.90
2495;DHT22;1258;48.336;14.322;2024-01-15T02:56:36;-7.90;99.90
2495;DHT22;1258;48.336;14.322;2024-01-15T02:59:04;-7.90;99.90
2495;DHT22;1258;48.336;14.322;2024-01-15T03:01:31;-7.90;99.90
2495;DHT22;1258;48.336;14.322;2024-01-15T03:03:58;-7.90;99.90
2495;DHT22;1258;48.336;14.322;2024-01-15T03:06:25;-7.80;99.90
2495;DHT22;1258;48.336;14.322;2024-01-15T03:08:52;-7.90;99.90
2495;DHT22;1258;48.336;14.322;2024-01-15T03:11:19;-7.70;99.90
2495;DHT22;1258;48.336;14.322;2024-01-15T03:13:45;-7.90;99.90
2495;DHT22;1258;48.336;14.322;2024-01-15T03:16:14;-7.90;99.90
2495;DHT22;1258;48.336;14.322;2024-01-15T03:18:41;-7.90;99.90
2495;DHT22;1258;48.336;14.322;2024-01-15T03:21:07;-8.00;99.90
2495;DHT22;1258;48.336;14.322;2024-01-15T03:23:34;-7.90;99.90
2495;DHT22;1258;48.336;14.322;2024-01-15T03:26:01;-7.90;99.90
2495;DHT22;1258;48.336;14.322;2024-01-15T03:28:28;-7.90;99.90
2495;DHT22;1258;48.336;14.322;2024-01-15T03:30:56;-7.90;99.90
2495;DHT22;1258;48.336;14.322;2024-01-15T03:33:24;-7.80;99.90
2495;DHT22;1258;48.336;14.322;2024-01-15T03:35:51;-7.80;99.90
2495;DHT22;1258;48.336;14.322;2024-01-15T03:38:17;-7.80;99.90
2495;DHT22;1258;48.336;14.322;2024-01-15T03:40:44;-7.70;99.90
2495;DHT22;1258;48.336;14.322;2024-01-15T03:43:12;-7.80;99.90
2495;DHT22;1258;48.336;14.322;2024-01-15T03:45:39;-7.80;99.90
2495;DHT22;1258;48.336;14.322;2024-01-15T03:48:06;-7.80;99.90
2495;DHT22;1258;48.336;14.322;2024-01-15T03:50:34;-7.80;99.90
2495;DHT22;1258;48.336;14.322;2024-01-15T03:53:01;-7.80;99.90
2495;DHT22;1258;48.336;14.322;2024-01-15T03:55:28;-7.80;99.90
2495;DHT22;1258;48.336;14.322;2024-01-15T03:57:55;-7.80;99.90
2495;DHT22;1258;48.336;14.322;2024-01-15T04:00:22;-7.80;99.90
2495;DHT22;1258;48.336;14.322;2024-01-15T04:02:49;-7.70;99.90
2495;DHT22;1258;48.336;14.322;2024-01-15T04:05:16;-7.70;99.90
2495;DHT22;1258;48.336;14.322;2024-01-15T04:07:44;-7.60;99.90
2495;DHT22;1258;48.336;14.322;2024-01-15T04:10:11;-7.60;99.90
2495;DHT22;1258;48.336;14.322;2024-01-15T04:12:38;-7.60;99.90
2495;DHT22;1258;48.336;14.322;2024-01-15T04:15:05;-7.40;99.90
2495;DHT22;1258;48.336;14.322;2024-01-15T04:17:32;-7.40;99.90
2495;DHT22;1258;48.336;14.322;2024-01-15T04:19:59;-7.40;99.90
2495;DHT22;1258;48.336;14.322;2024-01-15T04:22:27;-7.40;99.90
2495;DHT22;1258;48.336;14.322;2024-01-15T04:24:55;-7.40;99.90
2495;DHT22;1258;48.336;14.322;2024-01-15T04:27:22;-7.40;99.90
2495;DHT22;1258;48.336;14.322;2024-01-15T04:29:49;-7.30;99.90
2495;DHT22;1258;48.336;14.322;2024-01-15T04:32:16;-7.30;99.90
2495;DHT22;1258;48.336;14.322;2024-01-15T04:34:42;-7.30;99.90
2495;DHT22;1258;48.336;14.322;2024-01-15T04:37:09;-7.20;99.90
2495;DHT22;1258;48.336;14.322;2024-01-15T04:39:36;-7.20;99.90
2495;DHT22;1258;48.336;14.322;2024-01-15T04:42:05;-7.10;99.90
2495;DHT22;1258;48.336;14.322;2024-01-15T04:44:32;-7.00;99.90
2495;DHT22;1258;48.336;14.322;2024-01-15T04:46:59;-7.00;99.90
2495;DHT22;1258;48.336;14.322;2024-01-15T04:49:25;-7.10;99.90
2495;DHT22;1258;48.336;14.322;2024-01-15T04:51:55;-7.00;99.90
2495;DHT22;1258;48.336;14.322;2024-01-15T04:54:22;-7.00;99.90
2495;DHT22;1258;48.336;14.322;2024-01-15T04:56:48;-7.10;99.90
2495;DHT22;1258;48.336;14.322;2024-01-15T04:59:17;-7.00;99.90
2495;DHT22;1258;48.336;14.322;2024-01-15T05:01:43;-7.10;99.90
2495;DHT22;1258;48.336;14.322;2024-01-15T05:04:10;-7.00;99.90
2495;DHT22;1258;48.336;14.322;2024-01-15T05:06:37;-7.10;99.90
2495;DHT22;1258;48.336;14.322;2024-01-15T05:09:04;-7.10;99.90
2495;DHT22;1258;48.336;14.322;2024-01-15T05:11:31;-7.10;99.90
2495;DHT22;1258;48.336;14.322;2024-01-15T05:13:58;-7.00;99.90
2495;DHT22;1258;48.336;14.322;2024-01-15T05:16:26;-7.00;99.90
2495;DHT22;1258;48.336;14.322;2024-01-15T05:18:53;-6.90;99.90
2495;DHT22;1258;48.336;14.322;2024-01-15T05:21:20;-7.00;99.90
2495;DHT22;1258;48.336;14.322;2024-01-15T05:23:47;-7.00;99.90
2495;DHT22;1258;48.336;14.322;2024-01-15T05:26:13;-7.00;99.90
2495;DHT22;1258;48.336;14.322;2024-01-15T05:28:41;-7.00;99.90
2495;DHT22;1258;48.336;14.322;2024-01-15T05:31:08;-7.00;99.90
2495;DHT22;1258;48.336;14.322;2024-01-15T05:33:37;-7.00;99.90
2495;DHT22;1258;48.336;14.322;2024-01-15T05:36:05;-7.00;99.90
2495;DHT22;1258;48.336;14.322;2024-01-15T05:38:32;-7.00;99.90
2495;DHT22;1258;48.336;14.322;2024-01-15T05:40:59;-7.00;99.90
2495;DHT22;1258;48.336;14.322;2024-01-15T05:43:26;-7.00;99.90
2495;DHT22;1258;48.336;14.322;2024-01-15T05:45:52;-6.90;99.90
2495;DHT22;1258;48.336;14.322;2024-01-15T05:48:19;-7.00;99.90
2495;DHT22;1258;48.336;14.322;2024-01-15T05:50:48;-7.00;99.90
2495;DHT22;1258;48.336;14.322;2024-01-15T05:53:15;-7.00;99.90
2495;DHT22;1258;48.336;14.322;2024-01-15T05:55:41;-6.90;99.90
2495;DHT22;1258;48.336;14.322;2024-01-15T05:58:08;-6.90;99.90
2495;DHT22;1258;48.336;14.322;2024-01-15T06:00:35;-6.90;99.90
2495;DHT22;1258;48.336;14.322;2024-01-15T06:03:04;-6.90;99.90
2495;DHT22;1258;48.336;14.322;2024-01-15T06:05:30;-6.90;99.90
2495;DHT22;1258;48.336;14.322;2024-01-15T06:07:59;-7.00;99.90
2495;DHT22;1258;48.336;14.322;2024-01-15T06:10:26;-7.00;99.90
2495;DHT22;1258;48.336;14.322;2024-01-15T06:12:52;-7.00;99.90
2495;DHT22;1258;48.336;14.322;2024-01-15T06:15:19;-6.90;99.90
2495;DHT22;1258;48.336;14.322;2024-01-15T06:17:46;-6.90;99.90
2495;DHT22;1258;48.336;14.322;2024-01-15T06:20:13;-7.00;99.90
2495;DHT22;1258;48.336;14.322;2024-01-15T06:22:40;-7.00;99.90
2495;DHT22;1258;48.336;14.322;2024-01-15T06:25:08;-6.80;99.90
2495;DHT22;1258;48.336;14.322;2024-01-15T06:27:35;-6.80;99.90
2495;DHT22;1258;48.336;14.322;2024-01-15T06:30:03;-6.80;99.90
2495;DHT22;1258;48.336;14.322;2024-01-15T06:32:30;-6.90;99.90
2495;DHT22;1258;48.336;14.322;2024-01-15T06:34:57;-6.70;99.90
2495;DHT22;1258;48.336;14.322;2024-01-15T06:37:23;-6.80;99.90
2495;DHT22;1258;48.336;14.322;2024-01-15T06:39:50;-6.80;99.90
2495;DHT22;1258;48.336;14.322;2024-01-15T06:42:18;-6.70;99.90
2495;DHT22;1258;48.336;14.322;2024-01-15T06:44:47;-6.80;99.90
2495;DHT22;1258;48.336;14.322;2024-01-15T06:47:14;-6.90;99.90
2495;DHT22;1258;48.336;14.322;2024-01-15T06:49:42;-6.90;99.90
2495;DHT22;1258;48.336;14.322;2024-01-15T06:52:09;-6.90;99.90
2495;DHT22;1258;48.336;14.322;2024-01-15T06:54:37;-6.80;99.90
2495;DHT22;1258;48.336;14.322;2024-01-15T06:57:04;-6.80;99.90
2495;DHT22;1258;48.336;14.322;2024-01-15T06:59:33;-6.90;99.90
2495;DHT22;1258;48.336;14.322;2024-01-15T07:02:00;-6.90;99.90
2495;DHT22;1258;48.336;14.322;2024-01-15T07:04:28;-6.80;99.90
2495;DHT22;1258;48.336;14.322;2024-01-15T07:06:55;-6.90;99.90
2495;DHT22;1258;48.336;14.322;2024-01-15T07:09:22;-6.90;99.90
2495;DHT22;1258;48.336;14.322;2024-01-15T07:11:48;-6.90;99.90
2495;DHT22;1258;48.336;14.322;2024-01-15T07:14:16;-6.80;99.90
2495;DHT22;1258;48.336;14.322;2024-01-15T07:16:44;-6.80;99.90
2495;DHT22;1258;48.336;14.322;2024-01-15T07:19:11;-6.80;99.90
2495;DHT22;1258;48.336;14.322;2024-01-15T07:21:38;-6.80;99.90
2495;DHT22;1258;48.336;14.322;2024-01-15T07:24:08;-6.80;99.90
2495;DHT22;1258;48.336;14.322;2024-01-15T07:26:36;-6.80;99.90
2495;DHT22;1258;48.336;14.322;2024-01-15T07:29:02;-6.70;99.90
2495;DHT22;1258;48.336;14.322;2024-01-15T07:31:29;-6.60;99.90
2495;DHT22;1258;48.336;14.322;2024-01-15T07:33:58;-6.80;99.90
2495;DHT22;1258;48.336;14.322;2024-01-15T07:36:25;-6.80;99.90
2495;DHT22;1258;48.336;14.322;2024-01-15T07:38:52;-6.70;99.90
2495;DHT22;1258;48.336;14.322;2024-01-15T07:41:19;-6.60;99.90
2495;DHT22;1258;48.336;14.322;2024-01-15T07:43:46;-6.60;99.90
2495;DHT22;1258;48.336;14.322;2024-01-15T07:46:13;-6.70;99.90
2495;DHT22;1258;48.336;14.322;2024-01-15T07:48:39;-6.60;99.90
2495;DHT22;1258;48.336;14.322;2024-01-15T07:51:08;-6.60;99.90
2495;DHT22;1258;48.336;14.322;2024-01-15T07:53:35;-6.60;99.90
2495;DHT22;1258;48.336;14.322;2024-01-15T07:56:02;-6.50;99.90
2495;DHT22;1258;48.336;14.322;2024-01-15T07:58:28;-6.50;99.90
2495;DHT22;1258;48.336;14.322;2024-01-15T08:00:55;-6.50;99.90
2495;DHT22;1258;48.336;14.322;2024-01-15T08:03:22;-6.30;99.90
2495;DHT22;1258;48.336;14.322;2024-01-15T08:05:49;-6.40;99.90
2495;DHT22;1258;48.336;14.322;2024-01-15T08:08:19;-6.40;99.90
2495;DHT22;1258;48.336;14.322;2024-01-15T08:10:48;-6.30;99.90
2495;DHT22;1258;48.336;14.322;2024-01-15T08:13:15;-6.30;99.90
2495;DHT22;1258;48.336;14.322;2024-01-15T08:15:42;-6.30;99.90
2495;DHT22;1258;48.336;14.322;2024-01-15T08:18:09;-6.20;99.90
2495;DHT22;1258;48.336;14.322;2024-01-15T08:20:36;-6.20;99.90
2495;DHT22;1258;48.336;14.322;2024-01-15T08:23:03;-6.10;99.90
2495;DHT22;1258;48.336;14.322;2024-01-15T08:25:31;-6.10;99.90
2495;DHT22;1258;48.336;14.322;2024-01-15T08:27:58;-6.10;99.90
2495;DHT22;1258;48.336;14.322;2024-01-15T08:30:25;-6.10;99.90
2495;DHT22;1258;48.336;14.322;2024-01-15T08:32:53;-6.10;99.90
2495;DHT22;1258;48.336;14.322;2024-01-15T08:35:20;-6.00;99.90
2495;DHT22;1258;48.336;14.322;2024-01-15T08:37:48;-6.10;99.90
2495;DHT22;1258;48.336;14.322;2024-01-15T08:40:15;-6.10;99.90
2495;DHT22;1258;48.336;14.322;2024-01-15T08:42:43;-6.10;99.90
2495;DHT22;1258;48.336;14.322;2024-01-15T08:45:11;-6.10;99.90
2495;DHT22;1258;48.336;14.322;2024-01-15T08:47:38;-6.10;99.90
2495;DHT22;1258;48.336;14.322;2024-01-15T08:50:06;-6.00;99.90
2495;DHT22;1258;48.336;14.322;2024-01-15T08:52:35;-6.00;99.90
2495;DHT22;1258;48.336;14.322;2024-01-15T08:55:03;-6.00;99.90
2495;DHT22;1258;48.336;14.322;2024-01-15T08:57:30;-5.90;99.90
2495;DHT22;1258;48.336;14.322;2024-01-15T08:59:58;-5.90;99.90
2495;DHT22;1258;48.336;14.322;2024-01-15T09:02:25;-5.90;99.90
2495;DHT22;1258;48.336;14.322;2024-01-15T09:04:52;-5.90;99.90
2495;DHT22;1258;48.336;14.322;2024-01-15T09:07:19;-5.90;99.90
2495;DHT22;1258;48.336;14.322;2024-01-15T09:09:46;-5.90;99.90
2495;DHT22;1258;48.336;14.322;2024-01-15T09:12:13;-6.00;99.90
2495;DHT22;1258;48.336;14.322;2024-01-15T09:14:41;-6.00;99.90
2495;DHT22;1258;48.336;14.322;2024-01-15T09:17:09;-6.00;99.90
2495;DHT22;1258;48.336;14.322;2024-01-15T09:19:36;-6.00;99.90
2495;DHT22;1258;48.336;14.322;2024-01-15T09:22:04;-6.00;99.90
2495;DHT22;1258;48.336;14.322;2024-01-15T09:24:31;-6.00;99.90
2495;DHT22;1258;48.336;14.322;2024-01-15T09:26:58;-5.90;99.90
2495;DHT22;1258;48.336;14.322;2024-01-15T09:29:25;-5.90;99.90
2495;DHT22;1258;48.336;14.322;2024-01-15T09:31:52;-6.00;99.90
2495;DHT22;1258;48.336;14.322;2024-01-15T09:34:20;-6.10;99.90
2495;DHT22;1258;48.336;14.322;2024-01-15T09:36:48;-6.10;99.90
2495;DHT22;1258;48.336;14.322;2024-01-15T09:39:15;-6.10;99.90
2495;DHT22;1258;48.336;14.322;2024-01-15T09:41:42;-6.00;99.90
2495;DHT22;1258;48.336;14.322;2024-01-15T09:44:10;-6.10;99.90
2495;DHT22;1258;48.336;14.322;2024-01-15T09:46:38;-6.10;99.90
2495;DHT22;1258;48.336;14.322;2024-01-15T09:49:05;-5.90;99.90
2495;DHT22;1258;48.336;14.322;2024-01-15T09:51:34;-5.90;99.90
2495;DHT22;1258;48.336;14.322;2024-01-15T09:54:02;-5.90;99.90
2495;DHT22;1258;48.336;14.322;2024-01-15T09:56:30;-5.80;99.90
2495;DHT22;1258;48.336;14.322;2024-01-15T09:58:57;-5.80;99.90
2495;DHT22;1258;48.336;14.322;2024-01-15T10:01:25;-5.80;99.90
2495;DHT22;1258;48.336;14.322;2024-01-15T10:03:51;-5.70;99.90
2495;DHT22;1258;48.336;14.322;2024-01-15T10:06:21;-5.70;99.90
2495;DHT22;1258;48.336;14.322;2024-01-15T10:08:50;-5.70;99.90
2495;DHT22;1258;48.336;14.322;2024-01-15T10:11:17;-5.70;99.90
2495;DHT22;1258;48.336;14.322;2024-01-15T10:13:44;-5.70;99.90
2495;DHT22;1258;48.336;14.322;2024-01-15T10:16:12;-5.60;99.90
2495;DHT22;1258;48.336;14.322;2024-01-15T10:18:39;-5.50;99.90
2495;DHT22;1258;48.336;14.322;2024-01-15T10:21:07;-5.60;99.90
2495;DHT22;1258;48.336;14.322;2024-01-15T10:23:34;-5.60;99.90
2495;DHT22;1258;48.336;14.322;2024-01-15T10:26:03;-5.60;99.90
2495;DHT22;1258;48.336;14.322;2024-01-15T10:28:31;-5.60;99.90
2495;DHT22;1258;48.336;14.322;2024-01-15T10:30:58;-5.60;99.90
2495;DHT22;1258;48.336;14.322;2024-01-15T10:33:26;-5.50;99.90
2495;DHT22;1258;48.336;14.322;2024-01-15T10:35:54;-5.50;99.90
2495;DHT22;1258;48.336;14.322;2024-01-15T10:38:21;-5.50;99.90
2495;DHT22;1258;48.336;14.322;2024-01-15T10:40:50;-5.40;99.90
2495;DHT22;1258;48.336;14.322;2024-01-15T10:43:20;-5.40;99.90
2495;DHT22;1258;48.336;14.322;2024-01-15T10:45:47;-5.50;99.90
2495;DHT22;1258;48.336;14.322;2024-01-15T10:48:16;-5.40;99.90
2495;DHT22;1258;48.336;14.322;2024-01-15T10:50:43;-5.10;99.90
2495;DHT22;1258;48.336;14.322;2024-01-15T10:53:12;-5.10;99.90
2495;DHT22;1258;48.336;14.322;2024-01-15T10:55:39;-5.10;99.90
2495;DHT22;1258;48.336;14.322;2024-01-15T10:58:07;-5.00;99.90
2495;DHT22;1258;48.336;14.322;2024-01-15T11:00:36;-5.00;99.90
2495;DHT22;1258;48.336;14.322;2024-01-15T11:03:05;-5.10;99.90
2495;DHT22;1258;48.336;14.322;2024-01-15T11:05:33;-5.00;99.90
2495;DHT22;1258;48.336;14.322;2024-01-15T11:08:01;-5.00;99.90
2495;DHT22;1258;48.336;14.322;2024-01-15T11:10:45;-4.90;99.90
2495;DHT22;1258;48.336;14.322;2024-01-15T11:13:14;-4.90;99.90
2495;DHT22;1258;48.336;14.322;2024-01-15T11:16:03;-4.80;99.90
2495;DHT22;1258;48.336;14.322;2024-01-15T11:18:31;-5.00;99.90
2495;DHT22;1258;48.336;14.322;2024-01-15T11:21:20;-4.90;99.90
2495;DHT22;1258;48.336;14.322;2024-01-15T11:23:48;-4.80;99.90
2495;DHT22;1258;48.336;14.322;2024-01-15T11:26:29;-4.90;99.90
2495;DHT22;1258;48.336;14.322;2024-01-15T11:28:56;-4.80;99.90
2495;DHT22;1258;48.336;14.322;2024-01-15T11:31:28;-4.80;99.90
2495;DHT22;1258;48.336;14.322;2024-01-15T11:33:55;-4.80;99.90
2495;DHT22;1258;48.336;14.322;2024-01-15T11:36:28;-4.80;99.90
2495;DHT22;1258;48.336;14.322;2024-01-15T11:39:40;-4.70;99.90
2495;DHT22;1258;48.336;14.322;2024-01-15T11:42:10;-4.60;99.90
2495;DHT22;1258;48.336;14.322;2024-01-15T11:44:37;-4.60;99.90
2495;DHT22;1258;48.336;14.322;2024-01-15T11:47:07;-4.60;99.90
2495;DHT22;1258;48.336;14.322;2024-01-15T11:49:59;-4.60;99.90
2495;DHT22;1258;48.336;14.322;2024-01-15T11:52:32;-4.60;99.90
2495;DHT22;1258;48.336;14.322;2024-01-15T11:55:02;-4.60;99.90
2495;DHT22;1258;48.336;14.322;2024-01-15T11:57:40;-4.60;99.90
2495;DHT22;1258;48.336;14.322;2024-01-15T12:00:09;-4.60;99.90
2495;DHT22;1258;48.336;14.322;2024-01-15T12:02:39;-4.50;99.90
2495;DHT22;1258;48.336;14.322;2024-01-15T12:05:07;-4.50;99.90
2495;DHT22;1258;48.336;14.322;2024-01-15T12:07:34;-4.40;99.90
2495;DHT22;1258;48.336;14.322;2024-01-15T12:10:01;-4.50;99.90
2495;DHT22;1258;48.336;14.322;2024-01-15T12:12:35;-4.40;99.90
2495;DHT22;1258;48.336;14.322;2024-01-15T12:15:04;-4.40;99.90
2495;DHT22;1258;48.336;14.322;2024-01-15T12:17:32;-4.30;99.90
2495;DHT22;1258;48.336;14.322;2024-01-15T12:20:00;-4.50;99.90
2495;DHT22;1258;48.336;14.322;2024-01-15T12:22:27;-4.40;99.90
2495;DHT22;1258;48.336;14.322;2024-01-15T12:24:54;-4.50;99.90
2495;DHT22;1258;48.336;14.322;2024-01-15T12:27:21;-4.40;99.90
2495;DHT22;1258;48.336;14.322;2024-01-15T12:29:48;-4.60;99.90
2495;DHT22;1258;48.336;14.322;2024-01-15T12:32:16;-4.50;99.90
2495;DHT22;1258;48.336;14.322;2024-01-15T12:34:46;-4.60;99.90
2495;DHT22;1258;48.336;14.322;2024-01-15T12:37:14;-4.60;99.90
2495;DHT22;1258;48.336;14.322;2024-01-15T12:39:43;-4.70;99.90
2495;DHT22;1258;48.336;14.322;2024-01-15T12:42:10;-4.60;99.90
2495;DHT22;1258;48.336;14.322;2024-01-15T12:44:40;-4.50;99.90
2495;DHT22;1258;48.336;14.322;2024-01-15T12:47:07;-4.60;99.90
2495;DHT22;1258;48.336;14.322;2024-01-15T12:49:36;-4.60;99.90
2495;DHT22;1258;48.336;14.322;2024-01-15T12:52:03;-4.70;99.90
2495;DHT22;1258;48.336;14.322;2024-01-15T12:54:31;-4.60;99.90
2495;DHT22;1258;48.336;14.322;2024-01-15T12:56:58;-4.70;99.90
2495;DHT22;1258;48.336;14.322;2024-01-15T12:59:25;-4.70;99.90
2495;DHT22;1258;48.336;14.322;2024-01-15T13:01:52;-4.60;99.90
2495;DHT22;1258;48.336;14.322;2024-01-15T13:04:23;-4.60;99.90
2495;DHT22;1258;48.336;14.322;2024-01-15T13:06:51;-4.60;99.90
2495;DHT22;1258;48.336;14.322;2024-01-15T13:09:17;-4.60;99.90
2495;DHT22;1258;48.336;14.322;2024-01-15T13:11:46;-4.60;99.90
2495;DHT22;1258;48.336;14.322;2024-01-15T13:14:13;-4.70;99.90
2495;DHT22;1258;48.336;14.322;2024-01-15T13:16:40;-4.70;99.90
2495;DHT22;1258;48.336;14.322;2024-01-15T13:19:07;-4.60;99.90
2495;DHT22;1258;48.336;14.322;2024-01-15T13:21:36;-4.60;99.90
2495;DHT22;1258;48.336;14.322;2024-01-15T13:24:03;-4.70;99.90
2495;DHT22;1258;48.336;14.322;2024-01-15T13:26:31;-4.60;99.90
2495;DHT22;1258;48.336;14.322;2024-01-15T13:28:59;-4.60;99.90
2495;DHT22;1258;48.336;14.322;2024-01-15T13:31:26;-4.50;99.90
2495;DHT22;1258;48.336;14.322;2024-01-15T13:33:53;-4.50;99.90
2495;DHT22;1258;48.336;14.322;2024-01-15T13:36:21;-4.40;99.90
2495;DHT22;1258;48.336;14.322;2024-01-15T13:38:48;-4.30;99.90
2495;DHT22;1258;48.336;14.322;2024-01-15T13:41:18;-4.30;99.90
2495;DHT22;1258;48.336;14.322;2024-01-15T13:43:49;-4.30;99.90
2495;DHT22;1258;48.336;14.322;2024-01-15T13:46:20;-4.10;99.90
2495;DHT22;1258;48.336;14.322;2024-01-15T13:48:47;-4.10;99.90
2495;DHT22;1258;48.336;14.322;2024-01-15T13:51:14;-4.30;99.90
2495;DHT22;1258;48.336;14.322;2024-01-15T13:53:41;-4.30;99.90
2495;DHT22;1258;48.336;14.322;2024-01-15T13:56:08;-4.30;99.90
2495;DHT22;1258;48.336;14.322;2024-01-15T13:58:36;-4.20;99.90
2495;DHT22;1258;48.336;14.322;2024-01-15T14:01:03;-4.10;99.90
2495;DHT22;1258;48.336;14.322;2024-01-15T14:03:32;-4.00;99.90
2495;DHT22;1258;48.336;14.322;2024-01-15T14:06:00;-4.00;99.90
2495;DHT22;1258;48.336;14.322;2024-01-15T14:08:28;-4.20;99.90
2495;DHT22;1258;48.336;14.322;2024-01-15T14:10:55;-4.20;99.90
2495;DHT22;1258;48.336;14.322;2024-01-15T14:13:23;-4.20;99.90
2495;DHT22;1258;48.336;14.322;2024-01-15T14:15:50;-4.20;99.90
2495;DHT22;1258;48.336;14.322;2024-01-15T14:18:17;-4.10;99.90
2495;DHT22;1258;48.336;14.322;2024-01-15T14:20:45;-4.20;99.90
2495;DHT22;1258;48.336;14.322;2024-01-15T14:23:13;-4.30;99.90
2495;DHT22;1258;48.336;14.322;2024-01-15T14:25:40;-4.20;99.90
2495;DHT22;1258;48.336;14.322;2024-01-15T14:28:06;-4.20;99.90
2495;DHT22;1258;48.336;14.322;2024-01-15T14:30:33;-4.20;99.90
2495;DHT22;1258;48.336;14.322;2024-01-15T14:33:00;-4.10;99.90
2495;DHT22;1258;48.336;14.322;2024-01-15T14:35:27;-4.20;99.90
2495;DHT22;1258;48.336;14.322;2024-01-15T14:37:55;-4.20;99.90
2495;DHT22;1258;48.336;14.322;2024-01-15T14:40:24;-4.20;99.90
2495;DHT22;1258;48.336;14.322;2024-01-15T14:42:51;-4.10;99.90
2495;DHT22;1258;48.336;14.322;2024-01-15T14:45:18;-4.20;99.90
2495;DHT22;1258;48.336;14.322;2024-01-15T14:47:45;-4.20;99.90
2495;DHT22;1258;48.336;14.322;2024-01-15T14:50:12;-4.20;99.90
2495;DHT22;1258;48.336;14.322;2024-01-15T14:52:39;-4.30;99.90
2495;DHT22;1258;48.336;14.322;2024-01-15T14:55:09;-4.30;99.90
2495;DHT22;1258;48.336;14.322;2024-01-15T14:57:36;-4.20;99.90
2495;DHT22;1258;48.336;14.322;2024-01-15T15:00:04;-4.40;99.90
2495;DHT22;1258;48.336;14.322;2024-01-15T15:02:33;-4.30;99.90
2495;DHT22;1258;48.336;14.322;2024-01-15T15:05:00;-4.30;99.90
2495;DHT22;1258;48.336;14.322;2024-01-15T15:07:27;-4.30;99.90
2495;DHT22;1258;48.336;14.322;2024-01-15T15:09:54;-4.30;99.90
2495;DHT22;1258;48.336;14.322;2024-01-15T15:12:22;-4.20;99.90
2495;DHT22;1258;48.336;14.322;2024-01-15T15:14:49;-4.40;99.90
2495;DHT22;1258;48.336;14.322;2024-01-15T15:17:16;-4.30;99.90
2495;DHT22;1258;48.336;14.322;2024-01-15T15:19:43;-4.40;99.90
2495;DHT22;1258;48.336;14.322;2024-01-15T15:22:09;-4.40;99.90
2495;DHT22;1258;48.336;14.322;2024-01-15T15:24:37;-4.40;99.90
2495;DHT22;1258;48.336;14.322;2024-01-15T15:27:04;-4.50;99.90
2495;DHT22;1258;48.336;14.322;2024-01-15T15:29:33;-4.50;99.90
2495;DHT22;1258;48.336;14.322;2024-01-15T15:32:01;-4.40;99.90
2495;DHT22;1258;48.336;14.322;2024-01-15T15:34:28;-4.50;99.90
2495;DHT22;1258;48.336;14.322;2024-01-15T15:36:55;-4.50;99.90
2495;DHT22;1258;48.336;14.322;2024-01-15T15:39:22;-4.60;99.90
2495;DHT22;1258;48.336;14.322;2024-01-15T15:41:50;-4.70;99.90
2495;DHT22;1258;48.336;14.322;2024-01-15T15:44:17;-4.60;99.90
2495;DHT22;1258;48.336;14.322;2024-01-15T15:46:45;-4.60;99.90
2495;DHT22;1258;48.336;14.322;2024-01-15T15:49:12;-4.50;99.90